Time;durP1;ratioP1;P1;durP2;ratioP2;P2;SDS_P1;SDS_P2;PMS_P1;PMS_P2;Temp;Humidity;BMP_temperature;BMP_pressure;BME280_temperature;BME280_humidity;BME280_pressure;Samples;Min_cycle;Max_cycle;Signal;HPM_P1;HPM_P2
2024/02/02 00:02:02;;;;;;;56.67;29.33;;;;;;;1.09;70.41;100859.36;122772;1102;104768;-76
2024/02/02 00:04:33;;;;;;;54.00;28.60;;;;;;;1.15;70.69;100851.20;122742;1102;117934;-77
2024/02/02 00:07:04;;;;;;;52.30;27.73;;;;;;;1.20;70.42;100852.45;122710;1102;104261;-77
2024/02/02 00:09:35;;;;;;;53.07;26.93;;;;;;;1.25;70.40;100845.98;122791;1102;104686;-76
2024/02/02 00:12:10;;;;;;;54.33;28.13;;;;;;;1.33;70.51;100850.05;122718;1102;104217;-76
2024/02/02 00:14:42;;;;;;;53.80;26.90;;;;;;;1.40;70.87;100849.77;123030;1100;104248;-77
2024/02/02 00:17:13;;;;;;;50.40;28.37;;;;;;;1.44;70.71;100853.48;122720;1102;104335;-76
2024/02/02 00:19:44;;;;;;;53.40;27.77;;;;;;;1.47;71.60;100858.89;122790;1102;104290;-76
2024/02/02 00:22:16;;;;;;;51.17;26.40;;;;;;;1.46;71.56;100857.07;122687;1102;104284;-78
2024/02/02 00:24:48;;;;;;;49.20;26.17;;;;;;;1.48;71.35;100858.12;122798;1102;104376;-76
2024/02/02 00:27:19;;;;;;;51.03;27.40;;;;;;;1.47;71.39;100856.30;122758;1102;104397;-76
2024/02/02 00:29:50;;;;;;;51.23;27.70;;;;;;;1.47;71.95;100850.23;122766;1102;104361;-75
2024/02/02 00:32:21;;;;;;;53.77;26.23;;;;;;;1.46;72.12;100862.25;122771;1102;104255;-76
2024/02/02 00:34:52;;;;;;;49.87;26.90;;;;;;;1.47;71.76;100858.00;122760;1102;104246;-76
2024/02/02 00:37:23;;;;;;;46.47;25.80;;;;;;;1.47;72.73;100853.72;122737;1102;104288;-76
2024/02/02 00:39:54;;;;;;;49.40;26.37;;;;;;;1.48;72.03;100846.84;122776;1102;104255;-77
2024/02/02 00:42:25;;;;;;;47.03;25.07;;;;;;;1.49;72.28;100851.25;122746;1102;104411;-77
2024/02/02 00:44:57;;;;;;;49.93;26.10;;;;;;;1.49;73.04;100852.14;122785;1102;104454;-77
2024/02/02 00:47:28;;;;;;;47.97;26.30;;;;;;;1.47;73.18;100847.66;122708;1103;104210;-77
2024/02/02 00:49:59;;;;;;;45.77;26.47;;;;;;;1.48;72.76;100844.27;122757;1105;104235;-77
2024/02/02 00:52:31;;;;;;;46.75;24.30;;;;;;;1.54;73.09;100844.73;122692;1102;104313;-77
2024/02/02 00:55:03;;;;;;;46.57;24.73;;;;;;;1.61;73.71;100839.27;122745;1102;104355;-76
2024/02/02 00:57:34;;;;;;;42.93;21.90;;;;;;;1.67;73.87;100838.81;122726;1104;104299;-76
2024/02/02 01:00:10;;;;;;;45.47;24.83;;;;;;;1.72;73.77;100846.16;122725;1102;104357;-77
2024/02/02 01:02:41;;;;;;;43.87;23.77;;;;;;;1.78;73.55;100837.97;122701;1102;104360;-76
2024/02/02 01:05:13;;;;;;;49.70;24.03;;;;;;;1.85;74.26;100821.21;122653;1102;104338;-76
2024/02/02 01:07:45;;;;;;;46.33;24.97;;;;;;;1.91;74.02;100822.56;122654;1102;104341;-76
2024/02/02 01:10:16;;;;;;;47.43;24.23;;;;;;;1.98;74.59;100822.25;122651;1102;104264;-76
2024/02/02 01:12:47;;;;;;;42.00;20.67;;;;;;;2.03;74.70;100814.83;122808;1102;104462;-76
2024/02/02 01:15:23;;;;;;;43.13;22.13;;;;;;;2.08;74.50;100813.48;122708;1102;105703;-76
2024/02/02 01:17:55;;;;;;;41.40;20.75;;;;;;;2.12;74.51;100807.75;122906;1102;104255;-76
2024/02/02 01:20:26;;;;;;;37.10;19.03;;;;;;;2.18;74.95;100814.16;122925;1102;104488;-76
2024/02/02 01:22:57;;;;;;;40.90;21.63;;;;;;;2.23;74.81;100815.40;122779;1102;104373;-76
2024/02/02 01:25:29;;;;;;;38.90;19.97;;;;;;;2.27;75.34;100809.67;122757;1105;104389;-75
2024/02/02 01:28:01;;;;;;;41.60;21.15;;;;;;;2.32;75.68;100818.67;122719;1102;104364;-75
2024/02/02 01:30:32;;;;;;;40.83;19.97;;;;;;;2.33;75.80;100817.89;122788;1102;104402;-75
2024/02/02 01:33:03;;;;;;;37.00;19.40;;;;;;;2.35;75.51;100816.30;122748;1105;104348;-76
2024/02/02 01:35:34;;;;;;;43.93;23.40;;;;;;;2.34;75.25;100823.19;122732;1102;104315;-75
2024/02/02 01:38:06;;;;;;;38.07;20.03;;;;;;;2.33;75.31;100818.78;122792;1102;104265;-76
2024/02/02 01:40:37;;;;;;;43.57;22.20;;;;;;;2.34;75.47;100830.06;122776;1102;104306;-76
2024/02/02 01:43:08;;;;;;;41.13;22.47;;;;;;;2.33;75.31;100828.25;122702;1102;104389;-76
2024/02/02 01:45:40;;;;;;;44.07;21.27;;;;;;;2.31;75.60;100820.37;122658;1105;104342;-76
2024/02/02 01:48:11;;;;;;;42.95;21.85;;;;;;;2.31;75.64;100816.89;122709;1101;104317;-76
2024/02/02 01:50:43;;;;;;;40.40;21.17;;;;;;;2.31;76.53;100815.19;122792;1105;104313;-77
2024/02/02 01:53:14;;;;;;;41.50;22.17;;;;;;;2.32;76.32;100819.59;122688;1102;104242;-76
2024/02/02 01:55:45;;;;;;;39.23;20.03;;;;;;;2.31;76.37;100811.71;122773;1102;104314;-76
2024/02/02 01:58:16;;;;;;;41.53;21.20;;;;;;;2.31;76.33;100815.19;122737;1103;104399;-76
2024/02/02 02:00:48;;;;;;;39.53;21.27;;;;;;;2.30;76.26;100817.66;122699;1103;104306;-76
2024/02/02 02:03:19;;;;;;;41.13;22.57;;;;;;;2.30;76.36;100815.08;122713;1102;104361;-76
2024/02/02 02:05:51;;;;;;;44.20;23.70;;;;;;;2.30;77.58;100812.48;122637;1102;104296;-76
2024/02/02 02:08:22;;;;;;;43.15;23.20;;;;;;;2.27;77.17;100822.62;122728;1102;104357;-76
2024/02/02 02:10:54;;;;;;;44.25;23.50;;;;;;;2.25;76.63;100816.44;122739;1102;104319;-76
2024/02/02 02:13:26;;;;;;;38.77;20.57;;;;;;;2.24;77.00;100814.62;122725;1102;104306;-77
2024/02/02 02:15:58;;;;;;;43.60;22.43;;;;;;;2.22;76.62;100816.20;122736;1102;104261;-76
2024/02/02 02:18:29;;;;;;;37.73;19.67;;;;;;;2.21;76.89;100814.39;122695;1105;104380;-76
2024/02/02 02:21:06;;;;;;;38.13;20.53;;;;;;;2.22;77.26;100834.33;122777;1102;104322;-77
2024/02/02 02:23:39;;;;;;;39.17;19.13;;;;;;;2.21;77.51;100837.70;122659;1103;104261;-76
2024/02/02 02:26:10;;;;;;;37.83;20.17;;;;;;;2.22;77.92;100834.33;122792;1102;104264;-77
2024/02/02 02:28:41;;;;;;;38.63;19.77;;;;;;;2.20;77.51;100830.70;122782;1102;104336;-77
2024/02/02 02:31:14;;;;;;;36.63;19.43;;;;;;;2.20;77.36;100828.11;122770;1102;104379;-77
2024/02/02 02:33:46;;;;;;;38.03;20.80;;;;;;;2.20;76.96;100841.98;122743;1102;104379;-77
2024/02/02 02:36:18;;;;;;;36.93;18.77;;;;;;;2.18;77.36;100833.18;122753;1102;104384;-76
2024/02/02 02:38:51;;;;;;;37.67;18.80;;;;;;;2.19;77.96;100841.88;122662;1102;104344;-77
2024/02/02 02:41:22;;;;;;;36.53;19.05;;;;;;;2.18;77.51;100837.47;122759;1102;104373;-76
2024/02/02 02:43:54;;;;;;;33.83;18.23;;;;;;;2.18;77.84;100833.18;122676;1102;104293;-76
2024/02/02 02:46:25;;;;;;;34.27;17.90;;;;;;;2.18;78.20;100843.53;122775;1102;104712;-77
2024/02/02 02:48:56;;;;;;;30.80;17.13;;;;;;;2.18;78.36;100840.06;122741;1102;104341;-77
2024/02/02 02:51:28;;;;;;;33.00;17.23;;;;;;;2.16;77.81;100843.42;122711;1102;104325;-76
2024/02/02 02:53:59;;;;;;;35.67;17.37;;;;;;;2.17;78.27;100846.94;122791;1102;104370;-76
2024/02/02 02:56:30;;;;;;;36.60;18.37;;;;;;;2.16;78.26;100838.24;122649;1102;104338;-76
2024/02/02 02:59:03;;;;;;;37.63;18.53;;;;;;;2.16;78.63;100848.59;122816;1102;104293;-77
2024/02/02 03:01:34;;;;;;;31.60;16.80;;;;;;;2.14;78.27;100842.42;122729;1102;104409;-76
2024/02/02 03:04:05;;;;;;;34.03;15.87;;;;;;;2.14;78.04;100839.83;122711;1102;104366;-76
2024/02/02 03:06:36;;;;;;;33.50;16.70;;;;;;;2.15;78.37;100852.00;122710;1102;104322;-76
2024/02/02 03:09:11;;;;;;;34.67;17.20;;;;;;;2.15;77.90;100852.00;122676;1102;104238;-75
2024/02/02 03:11:45;;;;;;;32.47;16.83;;;;;;;2.18;78.25;100847.83;122804;1102;104347;-77
2024/02/02 03:14:16;;;;;;;35.50;16.90;;;;;;;2.20;78.26;100847.16;122750;1102;104446;-76
2024/02/02 03:16:48;;;;;;;32.03;17.07;;;;;;;2.22;78.28;100852.45;122638;1102;104271;-76
2024/02/02 03:19:19;;;;;;;33.13;16.27;;;;;;;2.22;78.41;100844.69;122645;1102;104370;-75
2024/02/02 03:21:50;;;;;;;34.13;16.37;;;;;;;2.23;78.47;100846.47;122832;1102;104281;-76
2024/02/02 03:24:21;;;;;;;31.20;15.90;;;;;;;2.25;78.31;100855.27;122686;1102;104255;-76
2024/02/02 03:26:53;;;;;;;31.90;15.67;;;;;;;2.27;78.83;100853.69;122708;1102;104491;-76
2024/02/02 03:29:24;;;;;;;32.20;15.43;;;;;;;2.28;78.66;100851.22;122713;1102;104283;-76
2024/02/02 03:31:55;;;;;;;30.70;15.03;;;;;;;2.30;78.64;100849.63;122732;1102;104284;-76
2024/02/02 03:34:26;;;;;;;30.73;14.97;;;;;;;2.33;78.90;100851.56;122898;1102;104400;-76
2024/02/02 03:36:58;;;;;;;30.87;15.87;;;;;;;2.36;78.63;100864.73;122799;1102;104319;-76
2024/02/02 03:39:29;;;;;;;29.20;14.17;;;;;;;2.38;79.30;100863.15;122701;1102;104329;-77
2024/02/02 03:42:00;;;;;;;30.73;15.40;;;;;;;2.40;78.39;100863.27;122706;1102;104284;-76
2024/02/02 03:44:32;;;;;;;28.97;14.00;;;;;;;2.41;79.58;100860.78;122723;1102;104360;-76
2024/02/02 03:47:03;;;;;;;29.03;15.03;;;;;;;2.41;78.82;100863.38;122816;1102;104310;-75
2024/02/02 03:49:35;;;;;;;30.80;15.50;;;;;;;2.43;78.97;100858.31;122739;1101;104338;-75
2024/02/02 03:52:07;;;;;;;31.20;14.93;;;;;;;2.43;78.57;100859.23;122793;1102;104396;-76
2024/02/02 03:54:38;;;;;;;32.10;15.37;;;;;;;2.44;79.33;100860.13;122693;1102;104261;-76
2024/02/02 03:57:09;;;;;;;30.07;14.67;;;;;;;2.43;79.37;100863.49;122806;1102;104326;-76
2024/02/02 03:59:40;;;;;;;29.15;14.35;;;;;;;2.46;78.97;100863.72;122717;1103;104241;-76
2024/02/02 04:02:12;;;;;;;29.90;14.37;;;;;;;2.47;79.39;100866.42;122708;1102;104281;-76
2024/02/02 04:04:44;;;;;;;28.00;14.07;;;;;;;2.51;79.31;100865.88;122710;1105;104354;-77
2024/02/02 04:07:15;;;;;;;27.23;13.90;;;;;;;2.54;79.06;100864.28;122832;1102;104271;-76
2024/02/02 04:09:46;;;;;;;30.30;14.60;;;;;;;2.57;78.97;100861.92;122775;1102;104366;-77
2024/02/02 04:12:18;;;;;;;30.17;13.63;;;;;;;2.56;78.90;100857.55;122656;1102;104265;-76
2024/02/02 04:14:49;;;;;;;28.37;13.43;;;;;;;2.59;79.94;100873.32;122745;1102;104283;-76
2024/02/02 04:17:21;;;;;;;34.07;14.73;;;;;;;2.60;79.35;100867.33;122731;1102;104478;-76
2024/02/02 04:19:52;;;;;;;30.23;14.53;;;;;;;2.61;78.78;100867.44;122642;1105;104338;-76
2024/02/02 04:22:23;;;;;;;29.93;14.43;;;;;;;2.63;79.47;100870.14;122723;1105;104373;-77
2024/02/02 04:24:54;;;;;;;28.50;12.65;;;;;;;2.65;79.06;100876.33;122776;1105;104741;-76
2024/02/02 04:27:25;;;;;;;26.53;13.00;;;;;;;2.68;79.61;100872.30;122661;1105;104283;-75
2024/02/02 04:29:57;;;;;;;26.23;12.87;;;;;;;2.70;80.01;100870.70;122723;1105;117878;-76
2024/02/02 04:32:28;;;;;;;27.95;13.35;;;;;;;2.74;79.58;100871.82;122792;1102;104393;-76
2024/02/02 04:34:59;;;;;;;26.27;12.37;;;;;;;2.75;79.94;100881.41;122717;1102;104741;-77
2024/02/02 04:37:30;;;;;;;26.63;13.03;;;;;;;2.77;79.64;100885.00;122732;1102;104313;-77
2024/02/02 04:40:01;;;;;;;29.50;14.05;;;;;;;2.77;79.92;100885.00;122766;1102;104255;-76
2024/02/02 04:42:33;;;;;;;28.53;13.80;;;;;;;2.78;80.35;100883.33;122758;1102;104297;-78
2024/02/02 04:45:04;;;;;;;32.97;14.60;;;;;;;2.76;80.23;100882.30;122741;1102;104338;-76
2024/02/02 04:47:35;;;;;;;29.43;13.60;;;;;;;2.78;80.46;100892.00;122716;1102;104373;-77
2024/02/02 04:50:07;;;;;;;30.90;14.47;;;;;;;2.79;80.05;100891.22;122694;1102;104252;-76
2024/02/02 04:52:41;;;;;;;29.40;13.93;;;;;;;2.79;80.15;100890.30;122721;1102;104255;-77
2024/02/02 04:55:12;;;;;;;29.97;14.33;;;;;;;2.78;80.86;100889.41;122780;1102;104343;-76
2024/02/02 04:57:44;;;;;;;27.97;13.30;;;;;;;2.80;80.05;100887.81;122743;1102;104302;-76
2024/02/02 05:00:17;;;;;;;27.00;13.17;;;;;;;2.79;80.69;100891.22;122761;1102;104722;-77
2024/02/02 05:02:48;;;;;;;29.07;13.07;;;;;;;2.79;80.04;100887.70;122748;1102;104281;-76
2024/02/02 05:05:20;;;;;;;29.87;13.97;;;;;;;2.79;81.15;100892.89;122763;1102;104741;-76
2024/02/02 05:07:51;;;;;;;24.23;12.27;;;;;;;2.78;80.94;100894.59;122804;1102;104383;-76
2024/02/02 05:10:22;;;;;;;28.47;13.40;;;;;;;2.79;80.42;100899.00;122671;1102;104411;-75
2024/02/02 05:12:53;;;;;;;28.20;13.80;;;;;;;2.80;80.71;100903.37;122808;1102;104309;-76
2024/02/02 05:15:24;;;;;;;26.73;12.90;;;;;;;2.81;80.64;100905.18;122727;1102;104217;-76
2024/02/02 05:17:56;;;;;;;25.60;12.97;;;;;;;2.82;80.85;100907.00;122848;1102;104341;-76
2024/02/02 05:20:27;;;;;;;26.07;12.53;;;;;;;2.83;81.01;100903.59;122697;1103;104331;-76
2024/02/02 05:22:58;;;;;;;27.70;13.23;;;;;;;2.84;80.27;100908.00;122928;1102;104255;-76
2024/02/02 05:25:29;;;;;;;27.80;12.70;;;;;;;2.85;80.26;100904.63;122999;1102;104313;-76
2024/02/02 05:28:00;;;;;;;31.80;13.03;;;;;;;2.87;80.99;100909.92;122803;1102;104389;-76
2024/02/02 05:30:32;;;;;;;28.27;12.90;;;;;;;2.88;80.95;100917.81;122857;1102;104261;-76
2024/02/02 05:33:03;;;;;;;31.77;13.20;;;;;;;2.90;80.18;100922.19;122777;1102;104373;-76
2024/02/02 05:35:34;;;;;;;27.60;12.90;;;;;;;2.92;80.53;100923.22;122868;1102;104319;-78
2024/02/02 05:38:05;;;;;;;26.00;12.23;;;;;;;2.93;80.40;100936.30;122907;1102;104280;-75
2024/02/02 05:40:37;;;;;;;27.00;13.53;;;;;;;2.95;80.72;100923.45;123006;1102;105501;-76
2024/02/02 05:43:12;;;;;;;29.53;13.67;;;;;;;2.94;80.60;100935.48;122913;1102;104254;-76
2024/02/02 05:45:43;;;;;;;28.37;13.77;;;;;;;2.95;80.42;100931.22;122987;1102;104319;-77
2024/02/02 05:48:14;;;;;;;28.55;14.00;;;;;;;2.97;81.27;100943.48;123064;1102;104345;-78
2024/02/02 05:50:47;;;;;;;27.50;12.83;;;;;;;2.98;80.58;100942.71;122873;1102;104818;-77
2024/02/02 05:53:18;;;;;;;25.57;12.83;;;;;;;3.01;81.31;100950.71;122964;1102;104252;-78
2024/02/02 05:55:49;;;;;;;30.17;14.30;;;;;;;3.04;81.23;100944.86;122984;1102;104181;-78
2024/02/02 05:58:20;;;;;;;31.53;13.43;;;;;;;3.08;80.84;100953.75;123043;1102;104309;-76
2024/02/02 06:00:52;;;;;;;25.23;12.27;;;;;;;3.11;81.44;100941.02;123207;1103;104284;-78
2024/02/02 06:03:23;;;;;;;29.17;12.73;;;;;;;3.15;81.70;100946.53;123063;1102;104280;-77
2024/02/02 06:05:54;;;;;;;26.57;12.63;;;;;;;3.21;81.87;100956.42;123107;1102;104332;-78
2024/02/02 06:08:26;;;;;;;25.20;11.90;;;;;;;3.24;82.07;100954.98;123382;1102;104247;-78
2024/02/02 06:11:00;;;;;;;26.63;11.57;;;;;;;3.29;81.53;100970.88;123138;1102;104265;-79
2024/02/02 06:13:32;;;;;;;28.67;11.53;;;;;;;3.35;81.89;100965.20;123369;1102;104524;-80
2024/02/02 06:16:04;;;;;;;23.63;10.83;;;;;;;3.40;81.87;100963.87;123426;1102;104403;-78
2024/02/02 06:18:37;;;;;;;24.10;10.97;;;;;;;3.45;81.43;100970.28;123603;1102;104255;-79
2024/02/02 06:21:08;;;;;;;22.67;9.87;;;;;;;3.50;82.00;100968.91;123804;1102;104328;-78
2024/02/02 06:23:39;;;;;;;24.03;10.43;;;;;;;3.54;81.64;100965.75;123445;1102;104332;-79
2024/02/02 06:26:10;;;;;;;26.47;10.97;;;;;;;3.58;81.57;100970.38;123420;1102;104343;-79
2024/02/02 06:28:41;;;;;;;21.97;10.00;;;;;;;3.63;81.28;100961.99;124225;1102;104265;-76
2024/02/02 06:31:14;;;;;;;20.00;9.60;;;;;;;3.68;81.82;100965.84;124060;1102;104181;-76
2024/02/02 06:33:45;;;;;;;23.70;10.20;;;;;;;3.69;81.76;100970.21;124046;1102;104205;-77
2024/02/02 06:36:16;;;;;;;20.97;9.20;;;;;;;3.69;81.43;100965.91;123976;1105;104315;-76
2024/02/02 06:38:56;;;;;;;23.67;9.97;;;;;;;3.70;81.93;100970.32;123760;1102;104281;-77
2024/02/02 06:41:28;;;;;;;23.20;9.50;;;;;;;3.71;81.17;100976.41;126052;1102;102680;-78
2024/02/02 06:43:59;;;;;;;24.63;10.07;;;;;;;3.70;81.67;100978.11;124622;1101;104254;-78
2024/02/02 06:46:33;;;;;;;23.37;9.57;;;;;;;3.69;80.67;100975.41;123907;1102;104226;-76
2024/02/02 06:49:04;;;;;;;22.87;9.35;;;;;;;3.70;81.63;100975.52;123983;1102;104630;-77
2024/02/02 06:51:35;;;;;;;21.13;9.27;;;;;;;3.71;81.11;100981.59;123693;1102;104280;-78
2024/02/02 06:54:08;;;;;;;23.63;10.27;;;;;;;3.76;81.72;100973.35;124202;1102;104207;-76
2024/02/02 06:56:42;;;;;;;20.70;9.33;;;;;;;3.85;81.33;100974.78;123883;1102;104236;-77
2024/02/02 06:59:14;;;;;;;25.67;10.07;;;;;;;3.93;81.53;100976.24;124161;1102;102096;-75
2024/02/02 07:01:45;;;;;;;22.33;9.27;;;;;;;4.00;81.34;100978.45;123739;1102;104255;-76
2024/02/02 07:04:21;;;;;;;19.80;9.40;;;;;;;4.07;80.95;100977.20;123819;1102;102779;-75
2024/02/02 07:06:54;;;;;;;25.07;8.97;;;;;;;4.17;81.00;100982.22;124348;1102;104300;-76
2024/02/02 07:09:32;;;;;;;20.47;9.07;;;;;;;4.22;81.14;100975.64;123872;1102;103567;-77
2024/02/02 07:12:05;;;;;;;21.40;9.33;;;;;;;4.27;80.70;100986.34;123867;1102;104360;-76
2024/02/02 07:14:45;;;;;;;25.07;9.27;;;;;;;4.31;81.20;100994.45;125477;1101;104220;-78
2024/02/02 07:17:32;;;;;;;22.70;9.73;;;;;;;4.35;80.09;100992.06;123859;1102;104223;-77
2024/02/02 07:20:08;;;;;;;23.33;9.30;;;;;;;4.36;80.64;100992.17;124343;1102;104024;-76
2024/02/02 07:22:41;;;;;;;22.27;8.67;;;;;;;4.41;79.87;100987.29;124006;1102;104261;-76
2024/02/02 07:25:17;;;;;;;22.63;7.73;;;;;;;4.47;80.55;100991.23;126043;1101;102365;-77
2024/02/02 07:28:01;;;;;;;21.20;7.87;;;;;;;4.55;80.13;100989.16;126046;1102;103274;-77
2024/02/02 07:30:54;;;;;;;21.70;7.87;;;;;;;4.61;79.70;100988.64;125834;1105;102859;-77
2024/02/02 07:33:32;;;;;;;20.17;7.60;;;;;;;4.64;79.34;100989.77;125702;1102;102349;-77
2024/02/02 07:36:08;;;;;;;20.93;7.93;;;;;;;4.68;79.08;100991.77;125978;1101;102453;-77
2024/02/02 07:38:53;;;;;;;21.70;8.00;;;;;;;4.71;78.79;100980.68;125930;1105;101911;-78
2024/02/02 07:41:26;;;;;;;18.85;6.95;;;;;;;4.75;78.95;100982.66;125059;1103;103513;-76
2024/02/02 07:44:00;;;;;;;19.47;7.27;;;;;;;4.81;78.08;100987.38;123970;1102;107057;-77
2024/02/02 07:46:31;;;;;;;20.93;7.57;;;;;;;4.86;78.67;100991.18;123822;1102;104328;-77
2024/02/02 07:49:03;;;;;;;22.47;7.97;;;;;;;4.90;77.94;101003.59;124028;1102;104191;-76
2024/02/02 07:51:37;;;;;;;22.33;7.67;;;;;;;4.95;77.40;101002.20;123975;1102;102609;-77
2024/02/02 07:54:09;;;;;;;19.50;7.72;;;;;;;4.98;77.18;101012.80;123902;1102;104232;-77
2024/02/02 07:56:40;;;;;;;20.53;7.07;;;;;;;5.01;77.69;100996.52;124174;1102;102294;-77
2024/02/02 07:59:11;;;;;;;23.63;7.27;;;;;;;5.04;76.63;101001.91;124201;1105;104258;-78
2024/02/02 08:01:43;;;;;;;18.33;6.30;;;;;;;5.07;76.37;101003.83;124261;1102;104204;-77
2024/02/02 08:04:15;;;;;;;19.80;6.87;;;;;;;5.11;76.42;101003.20;124228;1102;104230;-77
2024/02/02 08:06:50;;;;;;;24.17;7.17;;;;;;;5.16;75.13;101009.64;124295;1105;103953;-78
2024/02/02 08:09:22;;;;;;;18.40;6.40;;;;;;;5.19;75.52;101009.84;124010;1102;104287;-78
2024/02/02 08:11:54;;;;;;;19.97;6.33;;;;;;;5.23;75.31;101004.02;124066;1102;104172;-77
2024/02/02 08:14:25;;;;;;;23.17;6.73;;;;;;;5.28;75.28;101000.00;124110;1102;104197;-78
2024/02/02 08:16:56;;;;;;;17.60;6.33;;;;;;;5.34;74.64;101000.39;124036;1102;104156;-77
2024/02/02 08:19:28;;;;;;;17.57;6.13;;;;;;;5.40;75.14;101008.60;123850;1102;103125;-78
2024/02/02 08:22:00;;;;;;;20.30;6.63;;;;;;;5.48;73.73;101014.30;124137;1102;103098;-77
2024/02/02 08:24:32;;;;;;;20.00;6.10;;;;;;;5.51;73.97;101001.48;124026;1102;104258;-76
2024/02/02 08:27:05;;;;;;;18.30;6.60;;;;;;;5.58;74.20;101005.40;123953;1102;102596;-77
2024/02/02 08:29:37;;;;;;;19.50;5.63;;;;;;;5.64;74.02;101003.19;123955;1102;104182;-76
2024/02/02 08:32:10;;;;;;;17.33;5.87;;;;;;;5.70;73.65;101005.26;124117;1102;104224;-76
2024/02/02 08:34:42;;;;;;;20.67;6.23;;;;;;;5.70;73.17;101019.20;123918;1102;104400;-77
2024/02/02 08:37:16;;;;;;;19.40;5.67;;;;;;;5.75;72.87;101017.78;124061;1105;104239;-78
2024/02/02 08:39:52;;;;;;;22.80;6.95;;;;;;;5.80;72.63;101023.28;124036;1102;103072;-78
2024/02/02 08:42:25;;;;;;;15.73;5.67;;;;;;;5.85;71.27;101031.38;123871;1102;104673;-77
2024/02/02 08:44:58;;;;;;;21.07;6.00;;;;;;;5.91;72.94;101027.45;123926;1102;103724;-78
2024/02/02 08:47:34;;;;;;;19.77;5.90;;;;;;;5.99;71.11;101040.10;124605;1105;102242;-78
2024/02/02 08:50:06;;;;;;;19.07;5.57;;;;;;;6.03;70.87;101032.58;123875;1102;104287;-77
2024/02/02 08:52:44;;;;;;;20.00;5.93;;;;;;;6.06;70.71;101032.77;123798;1102;104220;-77
2024/02/02 08:55:35;;;;;;;17.60;5.27;;;;;;;6.09;70.34;101029.44;123853;1102;104169;-78
2024/02/02 08:58:17;;;;;;;21.27;6.17;;;;;;;6.19;70.19;101030.92;125574;1102;102725;-78
2024/02/02 09:00:50;;;;;;;20.30;5.77;;;;;;;6.29;70.32;101028.98;123951;1102;104201;-76
2024/02/02 09:03:30;;;;;;;22.70;6.00;;;;;;;6.47;70.73;101029.19;123938;1102;104254;-78
2024/02/02 09:06:04;;;;;;;16.30;5.90;;;;;;;6.52;69.15;101046.83;123795;1102;102393;-77
2024/02/02 09:08:39;;;;;;;13.62;4.83;;;;;;;6.59;68.97;101043.77;124008;1102;104281;-77
2024/02/02 09:11:20;;;;;;;15.87;4.97;;;;;;;6.66;68.71;101048.55;123901;1102;102702;-78
2024/02/02 09:14:06;;;;;;;15.73;5.43;;;;;;;6.64;68.83;101032.81;123848;1102;104283;-77
2024/02/02 09:16:47;;;;;;;18.03;5.50;;;;;;;6.53;68.50;101038.17;124140;1105;103757;-78
2024/02/02 09:19:27;;;;;;;20.40;5.40;;;;;;;6.42;67.69;101038.44;124109;1102;103776;-76
2024/02/02 09:22:00;;;;;;;17.20;5.40;;;;;;;6.38;66.44;101038.16;123979;1102;103238;-77
2024/02/02 09:24:53;;;;;;;21.70;6.50;;;;;;;6.24;66.96;101030.38;123937;1102;104383;-77
2024/02/02 09:27:32;;;;;;;21.83;5.33;;;;;;;6.17;65.71;101032.52;123868;1105;104683;-77
2024/02/02 09:30:06;;;;;;;17.87;5.23;;;;;;;6.21;67.15;101037.13;123958;1103;104230;-77
2024/02/02 09:32:37;;;;;;;16.30;4.90;;;;;;;6.29;67.10;101036.80;123752;1105;104217;-78
2024/02/02 09:35:45;;;;;;;22.20;5.70;;;;;;;6.33;65.64;101030.06;123759;1102;103662;-78
2024/02/02 09:38:22;;;;;;;20.30;5.70;;;;;;;6.37;65.97;101025.92;123862;1102;104713;-77
2024/02/02 09:41:40;;;;;;;15.57;5.00;;;;;;;6.40;65.71;101027.00;123640;1105;104287;-77
2024/02/02 09:44:27;;;;;;;16.57;4.87;;;;;;;6.52;66.86;101020.75;123757;1102;104357;-78
2024/02/02 09:47:08;;;;;;;17.87;5.00;;;;;;;6.53;63.92;101025.14;123874;1102;104217;-78
2024/02/02 09:49:52;;;;;;;15.73;4.77;;;;;;;6.57;64.22;101024.53;123892;1102;102877;-76
2024/02/02 09:52:34;;;;;;;16.73;5.12;;;;;;;6.72;64.54;101019.34;123918;1102;104248;-78
2024/02/02 09:55:16;;;;;;;19.70;5.13;;;;;;;6.92;64.25;101021.41;124034;1102;104281;-78
2024/02/02 09:57:56;;;;;;;16.53;4.87;;;;;;;6.94;63.82;101003.23;123840;1102;102166;-78
2024/02/02 10:00:37;;;;;;;22.13;5.20;;;;;;;6.98;63.42;101010.41;123834;1102;104176;-78
2024/02/02 10:03:24;;;;;;;15.13;4.80;;;;;;;6.99;62.07;101001.78;124072;1102;104288;-77
2024/02/02 10:06:11;;;;;;;16.80;5.20;;;;;;;6.79;62.82;101011.97;124126;1105;103998;-78
2024/02/02 10:08:57;;;;;;;17.60;5.17;;;;;;;6.60;63.18;101006.45;124034;1105;103104;-77
2024/02/02 10:11:49;;;;;;;15.10;5.03;;;;;;;6.45;63.91;101015.17;123846;1102;104254;-78
2024/02/02 10:14:45;;;;;;;17.13;5.07;;;;;;;6.32;63.22;101020.43;123991;1106;104189;-77
2024/02/02 10:17:30;;;;;;;20.33;5.73;;;;;;;6.38;62.66;101014.70;124085;1102;103781;-78
2024/02/02 10:20:18;;;;;;;16.43;4.47;;;;;;;6.43;62.81;101011.55;124891;1102;104230;-77
2024/02/02 10:23:12;;;;;;;15.67;4.97;;;;;;;6.52;61.76;100999.89;124164;1102;104230;-77
2024/02/02 10:26:15;;;;;;;22.93;5.55;;;;;;;6.64;62.45;100987.59;124115;1102;104182;-77
2024/02/02 10:29:01;;;;;;;19.03;5.07;;;;;;;6.74;61.66;100989.02;123831;1102;104290;-78
2024/02/02 10:31:51;;;;;;;14.70;4.40;;;;;;;6.84;62.09;100979.22;123723;1106;104272;-78
2024/02/02 10:34:35;;;;;;;18.00;4.95;;;;;;;6.93;61.44;100989.27;123904;1102;104185;-77
2024/02/02 10:37:22;;;;;;;17.43;5.20;;;;;;;7.04;61.44;100979.45;124090;1102;104261;-77
2024/02/02 10:40:18;;;;;;;16.00;5.30;;;;;;;7.19;61.53;100985.56;123727;1102;104137;-78
2024/02/02 10:43:13;;;;;;;18.37;4.70;;;;;;;7.27;60.72;100980.77;124212;1102;104204;-78
2024/02/02 10:46:00;;;;;;;15.88;4.05;;;;;;;7.34;60.20;100977.70;124002;1103;104287;-77
2024/02/02 10:48:57;;;;;;;15.37;3.63;;;;;;;7.40;58.20;100978.86;124036;1102;104331;-78
2024/02/02 10:51:36;;;;;;;16.80;3.80;;;;;;;7.41;56.07;100978.05;124236;1105;104248;-78
2024/02/02 10:54:23;;;;;;;14.13;3.60;;;;;;;7.50;57.47;100975.95;124179;1105;104210;-77
2024/02/02 10:57:07;;;;;;;13.13;3.77;;;;;;;7.52;58.36;100980.43;124122;1102;104255;-78
2024/02/02 10:59:50;;;;;;;14.73;4.05;;;;;;;7.59;56.08;100972.94;123968;1102;104175;-77
2024/02/02 11:02:33;;;;;;;14.47;4.20;;;;;;;7.63;55.95;100980.14;123873;1102;104229;-78
2024/02/02 11:05:16;;;;;;;15.73;4.23;;;;;;;7.55;56.05;100979.71;123978;1105;102860;-77
2024/02/02 11:07:53;;;;;;;17.40;4.20;;;;;;;7.51;57.53;100973.43;123950;1106;104255;-77
2024/02/02 11:10:29;;;;;;;15.90;4.30;;;;;;;7.45;57.43;100967.87;124011;1102;104175;-78
2024/02/02 11:13:14;;;;;;;14.67;4.40;;;;;;;7.41;57.32;100981.55;124271;1105;104261;-79
2024/02/02 11:15:57;;;;;;;14.20;4.03;;;;;;;7.32;56.14;100981.95;125189;1105;104207;-78
2024/02/02 11:18:43;;;;;;;18.43;4.20;;;;;;;7.20;55.45;100986.48;124206;1102;107978;-78
2024/02/02 11:21:32;;;;;;;15.10;4.10;;;;;;;7.08;56.28;100978.83;124283;1102;103549;-77
2024/02/02 11:24:13;;;;;;;16.23;3.97;;;;;;;7.16;56.34;100979.27;124250;1105;104262;-79
2024/02/02 11:26:54;;;;;;;10.47;4.10;;;;;;;7.20;55.94;100983.87;124255;1105;103626;-78
2024/02/02 11:29:44;;;;;;;19.40;4.87;;;;;;;7.20;55.46;100979.53;124241;1102;104326;-78
2024/02/02 11:32:35;;;;;;;16.00;3.87;;;;;;;7.23;55.32;100977.91;124174;1102;102965;-78
2024/02/02 11:35:19;;;;;;;14.33;4.30;;;;;;;7.16;54.94;100974.94;124269;1102;104175;-79
2024/02/02 11:38:06;;;;;;;17.70;3.47;;;;;;;7.07;53.61;100992.68;124070;1105;104208;-79
2024/02/02 11:40:45;;;;;;;14.13;3.70;;;;;;;7.06;53.03;100983.08;124123;1105;104357;-78